Time;durP1;ratioP1;P1;durP2;ratioP2;P2;SDS_P1;SDS_P2;PMS_P1;PMS_P2;Temp;Humidity;BMP_temperature;BMP_pressure;BME280_temperature;BME280_humidity;BME280_pressure;Samples;Min_cycle;Max_cycle;Signal;HPM_P1;HPM_P2
2024/02/03 00:00:46;;;;;;;19.02;9.02;;;;;;;7.80;100.00;100809.16;5051024;28;20099;-45
2024/02/03 00:03:16;;;;;;;16.65;9.13;;;;;;;7.84;100.00;100805.47;5051159;28;20071;-43
2024/02/03 00:05:45;;;;;;;16.50;9.30;;;;;;;7.74;100.00;100809.41;5051201;28;20094;-45
2024/02/03 00:08:14;;;;;;;18.17;10.13;;;;;;;7.79;100.00;100802.13;5051079;28;20098;-44
2024/02/03 00:10:42;;;;;;;15.82;8.75;;;;;;;7.80;100.00;100809.16;5051182;28;20045;-44
2024/02/03 00:13:10;;;;;;;18.70;9.93;;;;;;;7.79;100.00;100802.13;5051180;28;20045;-43
2024/02/03 00:15:39;;;;;;;18.08;10.48;;;;;;;7.83;100.00;100805.53;5051244;28;20117;-44
2024/02/03 00:18:08;;;;;;;19.27;10.52;;;;;;;7.87;100.00;100800.03;5050890;28;20049;-44
2024/02/03 00:20:38;;;;;;;18.17;9.90;;;;;;;7.90;100.00;100797.22;5051165;28;20140;-44
2024/02/03 00:23:06;;;;;;;18.08;9.88;;;;;;;7.94;100.00;100790.03;5050787;28;20405;-43
2024/02/03 00:25:35;;;;;;;16.52;10.05;;;;;;;7.97;100.00;100785.44;5050872;28;20461;-44
2024/02/03 00:28:03;;;;;;;19.02;9.98;;;;;;;7.96;100.00;100770.44;5050726;28;20501;-44
2024/02/03 00:30:32;;;;;;;17.45;10.93;;;;;;;7.95;100.00;100776.69;5050536;28;20135;-46
2024/02/03 00:33:00;;;;;;;17.58;10.02;;;;;;;7.86;100.00;100769.09;5050968;28;20049;-45
2024/02/03 00:35:29;;;;;;;22.48;11.35;;;;;;;7.91;100.00;100775.09;5051081;28;20048;-44
2024/02/03 00:37:59;;;;;;;19.48;10.93;;;;;;;7.93;100.00;100762.59;5050893;28;20041;-43
2024/02/03 00:40:27;;;;;;;19.63;10.38;;;;;;;7.95;100.00;100762.53;5050747;28;20124;-44
2024/02/03 00:42:56;;;;;;;17.88;10.05;;;;;;;8.00;100.00;100764.06;5050678;28;20045;-44
2024/02/03 00:45:25;;;;;;;20.70;10.80;;;;;;;7.95;100.00;100755.44;5050536;28;20045;-44
2024/02/03 00:47:53;;;;;;;19.55;10.88;;;;;;;8.02;100.00;100761.34;5050753;28;20053;-44
2024/02/03 00:50:22;;;;;;;17.42;11.05;;;;;;;7.99;100.00;100770.28;5050864;28;20133;-44
2024/02/03 00:52:52;;;;;;;18.63;10.75;;;;;;;8.06;100.00;100767.41;5050628;28;20509;-43
2024/02/03 00:55:22;;;;;;;17.70;10.15;;;;;;;8.12;100.00;100757.38;5050545;28;20053;-44
2024/02/03 00:57:50;;;;;;;19.70;10.73;;;;;;;8.10;100.00;100750.38;5050498;28;20801;-43
2024/02/03 01:00:22;;;;;;;20.55;10.70;;;;;;;8.14;100.00;100752.00;5050710;28;20073;-46
2024/02/03 01:02:51;;;;;;;18.90;11.52;;;;;;;8.20;100.00;100743.75;5055218;28;20060;-43
2024/02/03 01:05:19;;;;;;;19.10;11.63;;;;;;;8.18;100.00;100741.16;5050888;28;20662;-44
2024/02/03 01:07:48;;;;;;;18.40;11.07;;;;;;;8.16;100.00;100743.03;5050493;28;20057;-43
2024/02/03 01:10:16;;;;;;;19.10;11.55;;;;;;;8.16;100.00;100742.16;5050284;28;20045;-44
2024/02/03 01:12:46;;;;;;;19.65;11.48;;;;;;;8.17;100.00;100733.25;5052723;28;20081;-43
2024/02/03 01:15:15;;;;;;;17.77;11.15;;;;;;;8.18;100.00;100727.00;5054515;28;20041;-43
2024/02/03 01:17:43;;;;;;;18.08;11.43;;;;;;;8.16;100.00;100726.22;5054248;28;20073;-44
2024/02/03 01:20:12;;;;;;;19.27;11.43;;;;;;;8.16;100.00;100731.53;5054325;28;20075;-44
2024/02/03 01:22:41;;;;;;;22.13;12.40;;;;;;;8.12;100.00;100729.94;5054069;28;20063;-44
2024/02/03 01:25:09;;;;;;;20.27;11.38;;;;;;;8.14;100.00;100746.69;5053968;28;20049;-44
2024/02/03 01:27:38;;;;;;;19.30;12.20;;;;;;;8.14;100.00;100744.91;5053297;28;20059;-44
2024/02/03 01:30:08;;;;;;;20.27;11.63;;;;;;;8.16;100.00;100744.81;5053954;28;20040;-43
2024/02/03 01:32:36;;;;;;;21.15;12.52;;;;;;;8.17;100.00;100744.75;5053578;28;20052;-43
2024/02/03 01:35:06;;;;;;;24.70;12.55;;;;;;;8.19;100.00;100731.41;5053842;28;20103;-44
2024/02/03 01:37:35;;;;;;;19.58;11.05;;;;;;;8.23;100.00;100733.00;5053575;28;20041;-44
2024/02/03 01:40:05;;;;;;;17.77;10.68;;;;;;;8.24;100.00;100734.75;5054149;28;20110;-45
2024/02/03 01:42:35;;;;;;;18.30;10.30;;;;;;;8.26;100.00;100724.91;5053391;28;20049;-45
2024/02/03 01:45:04;;;;;;;20.55;10.05;;;;;;;8.30;100.00;100722.06;5053655;28;20049;-43
2024/02/03 01:47:34;;;;;;;16.63;9.43;;;;;;;8.31;100.00;100718.47;5053571;28;20091;-46
2024/02/03 01:50:04;;;;;;;13.45;7.97;;;;;;;8.28;100.00;100709.75;5053731;28;20408;-41
2024/02/03 01:52:34;;;;;;;13.52;8.43;;;;;;;8.31;100.00;100704.31;5053600;28;20060;-44
2024/02/03 01:55:02;;;;;;;14.98;8.25;;;;;;;8.36;100.00;100694.38;5053637;28;20045;-44
2024/02/03 01:57:32;;;;;;;14.45;8.50;;;;;;;8.39;100.00;100696.88;5053595;28;20055;-51
2024/02/03 02:00:01;;;;;;;16.00;9.20;;;;;;;8.42;100.00;100695.91;5053276;28;20041;-42
2024/02/03 02:02:29;;;;;;;16.20;8.90;;;;;;;8.42;100.00;100690.59;5054605;28;20064;-45
2024/02/03 02:04:59;;;;;;;16.00;9.63;;;;;;;8.46;100.00;100682.38;5038923;28;20132;-45
2024/02/03 02:07:27;;;;;;;14.65;8.65;;;;;;;8.50;100.00;100686.66;5055844;28;20040;-44
2024/02/03 02:09:56;;;;;;;16.10;9.20;;;;;;;8.52;100.00;100676.81;5055297;28;20053;-43
2024/02/03 02:12:25;;;;;;;14.35;9.20;;;;;;;8.52;100.00;100679.47;5053107;28;20080;-47
2024/02/03 02:14:53;;;;;;;17.42;9.50;;;;;;;8.49;100.00;100670.75;5043414;28;20510;-44
2024/02/03 02:17:22;;;;;;;17.17;8.98;;;;;;;8.51;100.00;100667.09;5032924;28;20053;-44
2024/02/03 02:19:50;;;;;;;17.35;9.75;;;;;;;8.56;100.00;100667.75;5033064;28;20042;-44
2024/02/03 02:22:22;;;;;;;16.08;9.98;;;;;;;8.50;100.00;100665.38;5032940;28;20052;-42
2024/02/03 02:24:50;;;;;;;17.50;10.32;;;;;;;8.51;100.00;100666.25;5033087;28;20405;-48
2024/02/03 02:27:18;;;;;;;20.58;10.57;;;;;;;8.50;100.00;100643.25;5032894;28;20486;-44
2024/02/03 02:29:47;;;;;;;19.27;10.90;;;;;;;8.37;100.00;100650.03;5032699;28;20045;-45
2024/02/03 02:32:15;;;;;;;20.15;9.90;;;;;;;8.43;100.00;100645.31;5032914;28;20195;-43
2024/02/03 02:34:44;;;;;;;23.88;10.95;;;;;;;8.43;100.00;100644.47;5032732;28;20084;-45
2024/02/03 02:37:12;;;;;;;20.73;10.27;;;;;;;8.39;100.00;100643.72;5032805;28;20045;-44
2024/02/03 02:39:42;;;;;;;16.33;10.60;;;;;;;8.49;100.00;100649.47;5032631;28;20045;-42
2024/02/03 02:42:10;;;;;;;16.33;9.95;;;;;;;8.47;100.00;100657.53;5032642;28;20049;-44
2024/02/03 02:44:39;;;;;;;18.48;10.35;;;;;;;8.43;100.00;100645.31;5032363;28;20112;-45
2024/02/03 02:47:07;;;;;;;16.75;10.23;;;;;;;8.51;100.00;100647.63;5032454;28;20510;-42
2024/02/03 02:49:36;;;;;;;16.05;9.55;;;;;;;8.48;100.00;100651.28;5032431;28;20558;-45
2024/02/03 02:52:05;;;;;;;17.10;10.45;;;;;;;8.44;100.00;100662.13;5032320;28;20107;-43
2024/02/03 02:54:33;;;;;;;16.77;10.30;;;;;;;8.51;100.00;100658.28;5032306;28;20045;-43
2024/02/03 02:57:04;;;;;;;17.15;10.25;;;;;;;8.56;100.00;100665.09;5032365;28;20041;-45
2024/02/03 02:59:32;;;;;;;19.13;10.98;;;;;;;8.52;100.00;100662.66;5032474;28;20136;-43
2024/02/03 03:02:01;;;;;;;18.02;10.77;;;;;;;8.52;100.00;100660.84;5033518;28;20049;-51
2024/02/03 03:04:33;;;;;;;19.13;10.48;;;;;;;8.44;100.00;100651.50;5033282;28;20052;-46
2024/02/03 03:07:01;;;;;;;19.38;11.10;;;;;;;8.40;100.00;100650.78;5033744;28;20132;-45
2024/02/03 03:09:29;;;;;;;19.25;10.68;;;;;;;8.33;100.00;100646.63;5032770;28;20077;-43
2024/02/03 03:11:58;;;;;;;19.65;11.30;;;;;;;8.33;100.00;100639.53;5032056;28;20136;-44
2024/02/03 03:14:28;;;;;;;18.92;11.55;;;;;;;8.34;100.00;100640.38;5032151;28;20045;-43
2024/02/03 03:16:56;;;;;;;18.77;10.45;;;;;;;8.35;100.00;100631.50;5032284;28;20217;-43
2024/02/03 03:19:27;;;;;;;19.10;11.32;;;;;;;8.31;100.00;100629.91;5031779;28;20103;-44
2024/02/03 03:21:56;;;;;;;16.95;9.95;;;;;;;8.39;100.00;100626.91;5031549;28;20052;-44
2024/02/03 03:24:24;;;;;;;18.73;10.93;;;;;;;8.33;100.00;100633.34;5031430;28;20050;-43
2024/02/03 03:26:52;;;;;;;20.48;11.15;;;;;;;8.37;100.00;100623.47;5031774;28;20049;-45
2024/02/03 03:29:21;;;;;;;18.73;10.65;;;;;;;8.37;100.00;100640.25;5031840;28;20472;-44
2024/02/03 03:31:50;;;;;;;18.10;10.98;;;;;;;8.38;100.00;100642.00;5031747;28;20406;-44
2024/02/03 03:34:19;;;;;;;18.25;10.85;;;;;;;8.43;100.00;100645.31;5031168;28;20045;-42
2024/02/03 03:36:47;;;;;;;16.45;10.57;;;;;;;8.49;100.00;100645.06;5031338;28;20122;-45
2024/02/03 03:39:16;;;;;;;20.23;11.45;;;;;;;8.33;100.00;100643.97;5031617;28;20418;-43
2024/02/03 03:41:44;;;;;;;21.63;11.52;;;;;;;8.42;100.00;100643.59;5031494;28;20041;-45
2024/02/03 03:44:12;;;;;;;21.10;11.40;;;;;;;8.44;100.00;100644.38;5031137;28;20148;-43
2024/02/03 03:46:41;;;;;;;19.70;11.20;;;;;;;8.47;100.00;100641.56;5031404;28;20072;-44
2024/02/03 03:49:10;;;;;;;17.73;10.88;;;;;;;8.47;100.00;100641.56;5031115;28;20049;-43
2024/02/03 03:51:39;;;;;;;17.13;9.88;;;;;;;8.45;100.00;100642.59;5031269;28;20041;-43
2024/02/03 03:54:07;;;;;;;18.83;11.45;;;;;;;8.45;100.00;100651.44;5031366;28;20087;-42
2024/02/03 03:56:35;;;;;;;18.02;10.40;;;;;;;8.43;100.00;100650.63;5031386;28;20099;-44
2024/02/03 03:59:03;;;;;;;21.15;11.13;;;;;;;8.45;100.00;100643.44;5031232;28;20041;-44
2024/02/03 04:01:32;;;;;;;23.40;11.10;;;;;;;8.46;100.00;100641.66;5031032;28;20091;-44
2024/02/03 04:04:00;;;;;;;17.17;10.52;;;;;;;8.44;100.00;100647.03;5031067;28;20053;-44
2024/02/03 04:06:30;;;;;;;18.25;11.43;;;;;;;8.42;100.00;100643.59;5031378;28;20045;-43
2024/02/03 04:08:59;;;;;;;19.13;10.23;;;;;;;8.44;100.00;100646.19;5031162;28;20053;-44
2024/02/03 04:11:27;;;;;;;17.58;10.63;;;;;;;8.46;100.00;100631.88;5031129;28;20053;-43
2024/02/03 04:13:57;;;;;;;16.80;9.73;;;;;;;8.41;100.00;100627.72;5030922;28;20478;-43
2024/02/03 04:16:25;;;;;;;12.48;7.57;;;;;;;8.49;100.00;100628.22;5030912;28;20077;-44
2024/02/03 04:18:53;;;;;;;10.57;6.30;;;;;;;8.59;100.00;100630.41;5031200;28;20058;-42
2024/02/03 04:21:22;;;;;;;7.60;5.05;;;;;;;8.77;100.00;100623.34;5031202;28;20084;-43
2024/02/03 04:23:51;;;;;;;8.73;4.78;;;;;;;8.93;100.00;100615.50;5030839;28;20127;-44
2024/02/03 04:26:20;;;;;;;7.78;4.40;;;;;;;9.10;100.00;100625.34;5030821;28;20041;-44
2024/02/03 04:28:48;;;;;;;11.38;5.10;;;;;;;9.22;100.00;100639.88;5030827;28;20081;-44
2024/02/03 04:31:17;;;;;;;8.70;4.47;;;;;;;9.31;100.00;100632.28;5030681;28;20461;-44
2024/02/03 04:33:45;;;;;;;7.00;4.22;;;;;;;9.42;100.00;100632.63;5030950;28;20072;-44
2024/02/03 04:36:13;;;;;;;8.45;5.03;;;;;;;9.52;100.00;100632.16;5030862;28;20410;-44
2024/02/03 04:38:41;;;;;;;14.02;5.80;;;;;;;9.50;100.00;100634.06;5030552;28;20103;-42
2024/02/03 04:41:21;;;;;;;22.33;9.25;;;;;;;9.51;100.00;100625.97;5030665;28;20127;-44
2024/02/03 04:43:49;;;;;;;12.45;5.68;;;;;;;9.53;100.00;100633.91;5030409;28;20120;-45
2024/02/03 04:46:17;;;;;;;9.02;5.00;;;;;;;9.57;100.00;100622.16;5030526;28;20461;-42
2024/02/03 04:48:46;;;;;;;9.52;4.57;;;;;;;9.57;100.00;100622.16;5034819;28;20049;-45
2024/02/03 04:51:14;;;;;;;8.68;4.47;;;;;;;9.63;100.00;100612.03;5035452;28;20042;-44
2024/02/03 04:53:43;;;;;;;9.18;5.10;;;;;;;9.78;100.00;100618.41;5037835;28;20080;-44
2024/02/03 04:56:12;;;;;;;7.82;4.30;;;;;;;9.66;100.00;100622.56;5034379;28;20053;-44
2024/02/03 04:58:41;;;;;;;9.70;5.00;;;;;;;9.72;100.00;100632.88;5034687;28;20053;-42
2024/02/03 05:01:10;;;;;;;8.85;5.03;;;;;;;9.58;100.00;100626.56;5034445;28;20095;-43
2024/02/03 05:03:38;;;;;;;9.27;5.22;;;;;;;9.57;100.00;100625.69;5034152;28;20049;-43
2024/02/03 05:06:07;;;;;;;8.15;4.80;;;;;;;9.52;100.00;100625.03;5034246;28;20077;-43
2024/02/03 05:08:36;;;;;;;7.80;4.72;;;;;;;9.55;100.00;100632.00;5034277;28;20683;-44
2024/02/03 05:11:04;;;;;;;9.50;4.95;;;;;;;9.52;100.00;100627.72;5034218;28;20411;-43
2024/02/03 05:13:34;;;;;;;11.02;5.32;;;;;;;9.59;100.00;100629.13;5034242;28;20046;-43
2024/02/03 05:16:03;;;;;;;9.77;4.75;;;;;;;9.57;100.00;100633.69;5034178;28;20502;-43
2024/02/03 05:18:31;;;;;;;8.43;5.03;;;;;;;9.55;100.00;100632.00;5034261;28;20052;-43
2024/02/03 05:20:59;;;;;;;7.75;5.07;;;;;;;9.56;100.00;100639.09;5034000;28;20089;-44
2024/02/03 05:23:28;;;;;;;7.68;5.00;;;;;;;9.50;100.00;100642.91;5033833;28;20717;-43
2024/02/03 05:25:56;;;;;;;8.73;5.13;;;;;;;9.44;100.00;100641.41;5034128;28;20053;-44
2024/02/03 05:28:25;;;;;;;8.68;5.20;;;;;;;9.57;100.00;100652.31;5033923;28;20050;-42
2024/02/03 05:30:54;;;;;;;8.77;5.00;;;;;;;9.37;100.00;100660.44;5033893;28;20050;-43
2024/02/03 05:33:23;;;;;;;10.45;5.30;;;;;;;9.52;100.00;100653.47;5033909;28;20080;-44
2024/02/03 05:35:51;;;;;;;11.38;5.40;;;;;;;9.57;100.00;100655.00;5033756;28;20092;-44
2024/02/03 05:38:20;;;;;;;9.25;5.22;;;;;;;9.51;100.00;100660.59;5033584;28;20045;-45
2024/02/03 05:40:48;;;;;;;8.52;5.47;;;;;;;9.52;100.00;100651.69;5033869;28;20081;-44
2024/02/03 05:43:16;;;;;;;8.57;4.85;;;;;;;9.42;100.00;100659.25;5033500;28;20060;-44
2024/02/03 05:45:45;;;;;;;9.60;4.90;;;;;;;9.44;100.00;100656.50;5033673;28;20049;-42
2024/02/03 05:48:14;;;;;;;8.77;5.25;;;;;;;9.42;100.00;100663.72;5033625;28;20056;-43
2024/02/03 05:50:43;;;;;;;8.02;4.88;;;;;;;9.43;100.00;100662.78;5033492;28;20057;-43
2024/02/03 05:53:11;;;;;;;8.15;4.95;;;;;;;9.37;100.00;100655.97;5033579;28;20490;-43
2024/02/03 05:55:40;;;;;;;8.48;4.70;;;;;;;9.42;100.00;100663.72;5033521;28;20049;-42
2024/02/03 05:58:08;;;;;;;8.57;4.93;;;;;;;9.38;100.00;100667.47;5033235;28;20079;-43
2024/02/03 06:00:36;;;;;;;8.88;4.95;;;;;;;9.40;100.00;100646.97;5033396;28;20140;-43
2024/02/03 06:03:05;;;;;;;7.47;4.70;;;;;;;9.40;100.00;100650.47;5033196;28;20156;-42
2024/02/03 06:05:35;;;;;;;10.25;4.88;;;;;;;9.40;100.00;100662.94;5033476;28;20602;-43
2024/02/03 06:08:19;;;;;;;7.07;4.30;;;;;;;9.42;100.00;100655.72;5033185;28;20402;-46
2024/02/03 06:10:48;;;;;;;10.65;4.68;;;;;;;9.41;100.00;100651.34;5033040;28;20053;-43
2024/02/03 06:13:20;;;;;;;9.23;4.45;;;;;;;9.42;100.00;100672.56;5033041;28;20041;-43
2024/02/03 06:15:52;;;;;;;7.85;4.47;;;;;;;9.39;100.00;100664.75;5033037;28;20418;-44
2024/02/03 06:18:21;;;;;;;7.15;4.43;;;;;;;9.35;100.00;100664.94;5033044;28;20045;-45
2024/02/03 06:20:50;;;;;;;8.20;4.50;;;;;;;9.39;100.00;100680.72;5033032;28;20438;-43
2024/02/03 06:23:18;;;;;;;6.53;4.00;;;;;;;9.42;100.00;100674.38;5033122;28;20049;-43
2024/02/03 06:25:47;;;;;;;7.70;4.07;;;;;;;9.39;100.00;100672.72;5032862;28;20049;-43
2024/02/03 06:28:15;;;;;;;7.20;4.10;;;;;;;9.47;100.00;100688.34;5032729;28;20057;-44
2024/02/03 06:30:44;;;;;;;8.20;4.63;;;;;;;9.44;100.00;100684.00;5033818;28;20045;-45
2024/02/03 06:33:12;;;;;;;6.50;4.03;;;;;;;9.52;100.00;100699.59;5037085;28;20049;-44
2024/02/03 06:35:41;;;;;;;7.30;4.18;;;;;;;9.50;100.00;100701.50;5032799;28;20052;-43
2024/02/03 06:38:14;;;;;;;7.68;4.13;;;;;;;9.45;100.00;100695.50;5032665;28;20414;-44
2024/02/03 06:40:43;;;;;;;5.90;3.72;;;;;;;9.49;100.00;100713.09;5032450;28;20414;-44
2024/02/03 06:43:11;;;;;;;6.85;4.22;;;;;;;9.53;100.00;100706.66;5032546;28;20060;-44
2024/02/03 06:45:40;;;;;;;10.20;3.92;;;;;;;9.51;100.00;100700.53;5032710;28;20057;-44
2024/02/03 06:48:08;;;;;;;8.40;4.57;;;;;;;9.48;100.00;100706.03;5032569;28;20190;-43
2024/02/03 06:50:36;;;;;;;7.95;4.35;;;;;;;9.45;100.00;100708.81;5032433;28;20428;-43
2024/02/03 06:53:05;;;;;;;6.72;4.18;;;;;;;9.55;100.00;100711.91;5032338;28;20049;-43
2024/02/03 06:55:36;;;;;;;6.93;3.97;;;;;;;9.51;100.00;100711.19;5032332;28;20128;-42
2024/02/03 06:58:05;;;;;;;6.88;3.70;;;;;;;9.52;100.00;100715.59;5032481;28;20046;-43
2024/02/03 07:00:33;;;;;;;8.85;4.22;;;;;;;9.53;100.00;100713.78;5032070;28;20455;-43
2024/02/03 07:03:02;;;;;;;7.03;3.90;;;;;;;9.61;100.00;100712.47;5032162;28;20416;-43
2024/02/03 07:05:30;;;;;;;7.45;4.38;;;;;;;9.58;100.00;100703.78;5032302;28;20049;-43
2024/02/03 07:08:02;;;;;;;8.32;4.15;;;;;;;9.62;100.00;100713.34;5032183;28;20049;-42
2024/02/03 07:10:30;;;;;;;10.20;4.28;;;;;;;9.64;100.00;100717.66;5031532;28;20045;-43
2024/02/03 07:13:00;;;;;;;6.50;3.75;;;;;;;9.57;100.00;100726.91;5032200;28;20414;-46
2024/02/03 07:15:28;;;;;;;6.47;4.05;;;;;;;9.74;100.00;100726.91;5032249;28;20049;-43
2024/02/03 07:17:57;;;;;;;9.00;4.18;;;;;;;9.69;100.00;100720.97;5032130;28;20052;-44
2024/02/03 07:20:25;;;;;;;6.88;3.90;;;;;;;9.57;100.00;100718.03;5031997;28;20057;-44
2024/02/03 07:22:53;;;;;;;6.78;3.75;;;;;;;9.54;100.00;100721.69;5031979;28;20475;-43
2024/02/03 07:25:22;;;;;;;6.97;3.70;;;;;;;9.54;100.00;100720.84;5032197;28;20136;-44
2024/02/03 07:27:50;;;;;;;7.88;4.30;;;;;;;9.71;100.00;100721.75;5032173;28;20057;-44
2024/02/03 07:30:20;;;;;;;7.28;3.75;;;;;;;9.60;100.00;100716.09;5033022;28;20049;-43
2024/02/03 07:32:49;;;;;;;8.13;4.18;;;;;;;9.66;100.00;100720.25;5032415;28;20513;-44
2024/02/03 07:35:18;;;;;;;7.28;3.70;;;;;;;9.64;100.00;100719.44;5032164;28;20050;-44
2024/02/03 07:37:46;;;;;;;6.45;3.42;;;;;;;9.69;100.00;100722.75;5032092;28;20045;-43
2024/02/03 07:40:15;;;;;;;8.50;3.85;;;;;;;9.78;100.00;100716.13;5031843;28;20045;-42
2024/02/03 07:42:44;;;;;;;9.55;4.10;;;;;;;9.77;100.00;100711.75;5032054;28;20087;-44
2024/02/03 07:45:12;;;;;;;6.30;3.60;;;;;;;9.64;100.00;100707.00;5031664;28;20054;-44
2024/02/03 07:47:44;;;;;;;12.88;4.50;;;;;;;9.73;100.00;100714.53;5031284;28;20190;-44
2024/02/03 07:50:12;;;;;;;7.72;3.72;;;;;;;9.73;100.00;100697.69;5031841;28;20065;-45
2024/02/03 07:52:41;;;;;;;8.50;3.88;;;;;;;9.70;100.00;100712.03;5031676;28;20057;-43
2024/02/03 07:55:09;;;;;;;6.60;3.33;;;;;;;9.81;100.00;100708.81;5031835;28;20057;-42
2024/02/03 07:57:37;;;;;;;6.10;3.65;;;;;;;9.76;100.00;100705.53;5034027;28;20048;-42
2024/02/03 08:00:08;;;;;;;7.65;4.07;;;;;;;9.86;100.00;100703.28;5035999;28;20049;-43
2024/02/03 08:02:37;;;;;;;5.85;3.58;;;;;;;9.91;100.00;100711.91;5035927;28;20088;-44
2024/02/03 08:05:07;;;;;;;7.97;4.50;;;;;;;9.87;100.00;100702.34;5033037;28;20148;-45
2024/02/03 08:07:36;;;;;;;9.13;4.47;;;;;;;9.90;100.00;100708.38;5031519;28;20075;-44
2024/02/03 08:10:05;;;;;;;6.13;3.88;;;;;;;10.03;100.00;100711.28;5031352;28;20041;-42
2024/02/03 08:12:33;;;;;;;12.15;3.63;;;;;;;10.17;100.00;100727.44;5031200;28;20135;-43
2024/02/03 08:15:02;;;;;;;6.95;3.80;;;;;;;10.06;100.00;100728.94;5031275;28;20131;-43
2024/02/03 08:17:31;;;;;;;7.90;3.65;;;;;;;10.09;100.00;100732.28;5030796;28;20504;-44
2024/02/03 08:19:59;;;;;;;7.65;3.75;;;;;;;10.17;100.00;100732.78;5030748;28;20092;-44
2024/02/03 08:22:28;;;;;;;7.63;3.50;;;;;;;10.24;100.00;100730.69;5030854;28;20069;-44
2024/02/03 08:24:56;;;;;;;7.38;3.90;;;;;;;10.20;100.00;100742.41;5030412;28;20435;-44
2024/02/03 08:27:25;;;;;;;8.00;3.80;;;;;;;10.27;100.00;100736.72;5030887;28;20064;-43
2024/02/03 08:29:53;;;;;;;5.93;3.90;;;;;;;10.29;100.00;100748.16;5037773;28;20399;-47
2024/02/03 08:32:23;;;;;;;8.65;4.40;;;;;;;10.24;100.00;100744.03;5030772;28;20439;-44
2024/02/03 08:34:52;;;;;;;6.38;3.70;;;;;;;10.30;100.00;100741.91;5031020;28;20049;-45
2024/02/03 08:37:23;;;;;;;7.32;3.92;;;;;;;10.34;100.00;100761.28;5030772;28;20041;-44
2024/02/03 08:39:52;;;;;;;6.85;4.10;;;;;;;10.37;100.00;100754.94;5030354;28;20355;-43
2024/02/03 08:42:20;;;;;;;7.15;4.28;;;;;;;10.42;100.00;100752.88;5030344;28;20042;-43
2024/02/03 08:44:49;;;;;;;6.70;4.18;;;;;;;10.35;100.00;100748.81;5030296;28;20056;-43
2024/02/03 08:47:18;;;;;;;9.13;4.00;;;;;;;10.23;100.00;100745.84;5030549;28;20515;-45
2024/02/03 08:49:52;;;;;;;7.35;3.95;;;;;;;10.40;100.00;100747.63;5030454;28;20041;-44
2024/02/03 08:52:20;;;;;;;7.78;4.15;;;;;;;10.35;100.00;100751.47;5030546;28;20052;-43
2024/02/03 08:54:50;;;;;;;7.32;4.07;;;;;;;10.32;100.00;100745.34;5030421;28;20053;-43
2024/02/03 08:57:20;;;;;;;7.00;4.22;;;;;;;10.32;100.00;100734.66;5030772;28;20045;-43
2024/02/03 08:59:50;;;;;;;6.90;3.58;;;;;;;10.37;100.00;100746.94;5028938;28;20055;-42
2024/02/03 09:02:19;;;;;;;8.60;3.65;;;;;;;10.32;100.00;100748.00;5028335;28;20379;-42
2024/02/03 09:04:47;;;;;;;7.75;4.10;;;;;;;10.43;100.00;100733.28;5029288;28;20061;-42
2024/02/03 09:07:15;;;;;;;8.20;3.90;;;;;;;10.40;100.00;100750.28;5029355;28;20993;-43
2024/02/03 09:09:43;;;;;;;6.45;3.85;;;;;;;10.54;100.00;100757.59;5029492;28;20056;-44
2024/02/03 09:12:12;;;;;;;6.78;3.85;;;;;;;10.51;100.00;100755.06;5027985;28;20049;-43
2024/02/03 09:14:41;;;;;;;6.15;3.65;;;;;;;10.62;100.00;100746.53;5029433;28;20149;-42
2024/02/03 09:17:10;;;;;;;9.57;3.95;;;;;;;10.54;100.00;100752.25;5028769;28;20184;-45
2024/02/03 09:19:38;;;;;;;7.40;3.80;;;;;;;10.51;100.00;100753.25;5027518;28;20477;-44
2024/02/03 09:22:06;;;;;;;7.00;3.40;;;;;;;10.46;100.00;100757.97;5028483;28;20073;-44
2024/02/03 09:24:35;;;;;;;8.93;3.95;;;;;;;10.50;100.00;100756.00;5029145;28;20053;-43
2024/02/03 09:27:04;;;;;;;5.85;3.67;;;;;;;10.47;100.00;100757.03;5029822;28;20069;-43
2024/02/03 09:29:32;;;;;;;10.05;4.80;;;;;;;10.52;100.00;100756.81;5029004;28;20053;-44
2024/02/03 09:32:02;;;;;;;7.47;4.00;;;;;;;10.53;100.00;100750.53;5027685;28;20042;-45
2024/02/03 09:34:30;;;;;;;10.50;3.70;;;;;;;10.43;100.00;100760.81;5031975;28;20092;-44
2024/02/03 09:37:01;;;;;;;9.10;4.32;;;;;;;10.38;100.00;100756.66;5032539;28;20048;-43
2024/02/03 09:39:33;;;;;;;6.75;3.30;;;;;;;10.46;100.00;100754.44;5032627;28;20084;-45
2024/02/03 09:42:01;;;;;;;10.57;3.70;;;;;;;10.51;100.00;100765.72;5031437;28;20489;-44
2024/02/03 09:44:30;;;;;;;14.95;4.15;;;;;;;10.38;100.00;100767.31;5031765;28;20049;-45
2024/02/03 09:46:58;;;;;;;5.72;3.40;;;;;;;10.48;100.00;100768.56;5032332;28;20170;-45
2024/02/03 09:49:28;;;;;;;6.95;3.65;;;;;;;10.41;100.00;100768.00;5032292;28;20492;-43
2024/02/03 09:51:57;;;;;;;7.70;3.72;;;;;;;10.47;100.00;100777.50;5031415;28;20060;-46
2024/02/03 09:54:27;;;;;;;6.75;3.47;;;;;;;10.57;100.00;100773.44;5032429;28;20077;-45
2024/02/03 09:56:55;;;;;;;6.18;3.80;;;;;;;10.43;100.00;100770.63;5031886;28;20107;-43
2024/02/03 09:59:23;;;;;;;8.18;3.60;;;;;;;10.57;100.00;100762.75;5031890;28;20050;-42
2024/02/03 10:01:52;;;;;;;6.40;3.70;;;;;;;10.50;100.00;100772.00;5030942;28;20140;-44
2024/02/03 10:04:20;;;;;;;6.38;3.95;;;;;;;10.49;100.00;100770.28;5031643;28;20053;-43
2024/02/03 10:07:01;;;;;;;8.60;3.78;;;;;;;10.49;100.00;100762.28;5034323;28;20077;-44
2024/02/03 10:09:29;;;;;;;7.22;3.92;;;;;;;10.44;100.00;100762.53;5031496;28;20060;-45
2024/02/03 10:12:18;;;;;;;6.97;4.15;;;;;;;10.48;100.00;100750.75;5030639;28;20080;-43
2024/02/03 10:15:01;;;;;;;6.97;3.92;;;;;;;10.56;100.00;100745.03;5031447;28;20049;-44
2024/02/03 10:17:29;;;;;;;8.18;3.60;;;;;;;10.48;100.00;100750.75;5031668;28;20141;-45
2024/02/03 10:19:58;;;;;;;7.75;3.78;;;;;;;10.66;100.00;100759.59;5031379;28;20132;-45
2024/02/03 10:22:28;;;;;;;7.20;3.78;;;;;;;10.61;100.00;100742.97;5030675;28;20045;-43
2024/02/03 10:25:07;;;;;;;5.32;3.17;;;;;;;10.72;100.00;100743.28;5031534;28;20050;-44
2024/02/03 10:27:37;;;;;;;6.90;3.67;;;;;;;10.68;100.00;100744.38;5031689;28;20049;-42
2024/02/03 10:30:06;;;;;;;7.80;3.85;;;;;;;10.70;100.00;100753.16;5031236;28;20041;-44
2024/02/03 10:32:35;;;;;;;5.82;3.72;;;;;;;10.62;100.00;100744.72;5030751;28;20465;-44
2024/02/03 10:35:03;;;;;;;8.48;4.03;;;;;;;10.87;100.00;100744.25;5031632;28;20760;-45
2024/02/03 10:37:33;;;;;;;7.32;3.58;;;;;;;10.99;100.00;100761.41;5031044;28;20137;-43
2024/02/03 10:40:02;;;;;;;6.20;3.25;;;;;;;10.91;100.00;100753.00;5030925;28;20103;-44
2024/02/03 10:42:35;;;;;;;7.95;3.65;;;;;;;10.91;100.00;100750.31;5029415;28;20050;-43
2024/02/03 10:45:11;;;;;;;6.32;3.70;;;;;;;10.98;100.00;100746.34;5030300;28;20050;-44
2024/02/03 10:47:43;;;;;;;7.72;3.78;;;;;;;11.11;100.00;100739.44;5031338;28;20057;-44
2024/02/03 10:50:13;;;;;;;6.72;3.88;;;;;;;11.10;100.00;100741.22;5023439;28;20046;-45
2024/02/03 10:52:46;;;;;;;8.05;3.95;;;;;;;11.27;100.00;100744.75;5030049;28;20091;-43
2024/02/03 10:55:16;;;;;;;;;;;;;;;11.26;100.00;100738.56;5031340;28;20065;-44
2024/02/03 10:57:47;;;;;;;5.82;3.25;;;;;;;11.18;100.00;100738.13;5031180;28;19921;-45
2024/02/03 11:00:18;;;;;;;5.95;3.50;;;;;;;11.17;100.00;100729.25;5030814;28;20045;-44
2024/02/03 11:02:53;;;;;;;8.77;4.10;;;;;;;11.29;100.00;100735.75;5029436;28;20049;-47
2024/02/03 11:05:24;;;;;;;11.18;3.63;;;;;;;11.32;100.00;100734.69;5031045;28;20052;-43
2024/02/03 11:07:53;;;;;;;6.15;4.00;;;;;;;11.25;100.00;100734.16;5022812;28;20068;-43
2024/02/03 11:10:27;;;;;;;6.32;3.08;;;;;;;11.37;100.00;100735.28;5030076;28;20145;-43
2024/02/03 11:13:02;;;;;;;7.38;3.58;;;;;;;11.39;100.00;100736.09;5029187;28;20525;-44
2024/02/03 11:15:30;;;;;;;6.43;3.63;;;;;;;11.36;100.00;100726.41;5030793;28;20085;-42
2024/02/03 11:18:06;;;;;;;6.35;3.55;;;;;;;11.39;100.00;100720.06;5030078;28;20049;-44
2024/02/03 11:20:35;;;;;;;6.63;3.60;;;;;;;11.35;100.00;100715.81;5030436;28;20487;-43
2024/02/03 11:23:11;;;;;;;6.90;3.55;;;;;;;11.43;100.00;100721.59;5029275;28;20041;-45
2024/02/03 11:25:43;;;;;;;6.50;3.35;;;;;;;11.38;100.00;100745.88;5030625;28;20394;-46